You are not logged in, Click here to log in
新加坡樟宜機場SIN / WSSS 新加坡樟宜
ICAO: WSSS Country: 新加坡樟宜
Latitude: 1.36442 Longitude: 103.992
Total Arrivals: 88 Total Departures: 84
Latest Arrival: SQ7955 (VHHH-WSSS)CHU. CHUHAO Latest Departure: TZ202 (WSSS-RCTP)CHU. CHUHAO
Scenery:
METAR : WSSS 240830Z 04011KT 9999 FEW023 SCT350 30/22 Q1009 NOSIG

新加坡樟宜機場SIN

You are accessing this site from IP address 18.206.12.79. Virtual Airline. CMS by phpVMS.Website designed by Zumeweb and edited by Theo Bearman.
There is 0 User(s) Online: | and 7 Guest(s) Online.
All information on this site is for fight simulation purposes only. This site is for flight logging for pilots of Virtual Airline&模擬飛行論壇 FlySim only.